createdAt,value
2019-05-11T00:02:06.775Z,48.15
2019-05-11T00:04:36.935Z,46.48
2019-05-11T00:07:04.889Z,43.30
2019-05-11T00:09:34.191Z,44.27
2019-05-11T00:12:02.225Z,42.73
2019-05-11T00:14:30.438Z,44.05
2019-05-11T00:17:00.555Z,43.78
2019-05-11T00:19:29.099Z,44.00
2019-05-11T00:21:56.999Z,43.68
2019-05-11T00:24:24.959Z,42.70
2019-05-11T00:26:57.267Z,44.70
2019-05-11T00:29:25.192Z,46.60
2019-05-11T00:31:53.384Z,46.40
2019-05-11T00:34:21.257Z,46.90
2019-05-11T00:36:51.183Z,47.30
2019-05-11T00:39:19.166Z,52.62
2019-05-11T00:41:48.609Z,50.98
2019-05-11T00:44:19.454Z,49.53
2019-05-11T00:46:48.451Z,50.12
2019-05-11T00:49:16.398Z,51.95
2019-05-11T00:51:44.640Z,52.98
2019-05-11T00:54:13.174Z,54.70
2019-05-11T00:56:41.074Z,54.95
2019-05-11T00:59:21.350Z,52.43
2019-05-11T01:01:40.000Z,55.15
2019-05-11T01:04:09.069Z,50.88
2019-05-11T01:06:36.993Z,50.75
2019-05-11T01:09:06.357Z,55.48
2019-05-11T01:11:37.780Z,54.98
2019-05-11T01:14:06.016Z,48.98
2019-05-11T01:16:36.254Z,53.70
2019-05-11T01:19:04.667Z,54.75
2019-05-11T01:21:32.691Z,56.30
2019-05-11T01:24:00.594Z,51.77
2019-05-11T01:26:34.338Z,53.33
2019-05-11T01:29:03.403Z,52.27
2019-05-11T01:31:31.456Z,49.90
2019-05-11T01:33:59.354Z,50.60
2019-05-11T01:36:27.308Z,46.33
2019-05-11T01:38:59.299Z,49.45
2019-05-11T01:41:27.251Z,49.90
2019-05-11T01:43:55.129Z,50.67
2019-05-11T01:46:23.112Z,46.20
2019-05-11T01:48:51.465Z,49.67
2019-05-11T01:51:20.605Z,48.85
2019-05-11T01:53:48.550Z,52.88
2019-05-11T01:56:17.695Z,55.17
2019-05-11T01:58:45.647Z,55.15
2019-05-11T02:01:15.484Z,61.23
2019-05-11T02:03:43.385Z,61.65
2019-05-11T02:06:11.655Z,60.10
2019-05-11T02:08:39.562Z,60.00
2019-05-11T02:11:16.064Z,58.42
2019-05-11T02:13:37.263Z,59.83
2019-05-11T02:16:05.223Z,58.80
2019-05-11T02:18:34.504Z,57.43
2019-05-11T02:21:04.679Z,59.30
2019-05-11T02:23:34.419Z,55.40
2019-05-11T02:26:02.416Z,56.28
2019-05-11T02:28:30.429Z,58.38
2019-05-11T02:30:58.424Z,63.50
2019-05-11T02:33:26.297Z,64.30
2019-05-11T02:35:54.226Z,63.52
2019-05-11T02:38:22.188Z,63.73
2019-05-11T02:40:50.121Z,64.47
2019-05-11T02:43:18.062Z,64.82
2019-05-11T02:45:46.265Z,66.28
2019-05-11T02:48:14.173Z,70.62
2019-05-11T02:50:42.422Z,63.87
2019-05-11T02:53:12.670Z,62.13
2019-05-11T02:55:40.393Z,70.37
2019-05-11T02:58:08.584Z,69.95
2019-05-11T03:00:40.129Z,66.33
2019-05-11T03:03:10.319Z,62.98
2019-05-11T03:05:38.981Z,72.03
2019-05-11T03:08:06.885Z,71.33
2019-05-11T03:10:34.882Z,65.67
2019-05-11T03:13:02.751Z,62.05
2019-05-11T03:15:30.757Z,63.02
2019-05-11T03:17:58.660Z,65.05
2019-05-11T03:20:26.527Z,59.40
2019-05-11T03:22:54.394Z,63.40
2019-05-11T03:25:22.331Z,62.85
2019-05-11T03:27:50.221Z,62.50
2019-05-11T03:30:19.242Z,64.97
2019-05-11T03:32:50.114Z,65.75
2019-05-11T03:35:18.057Z,63.38
2019-05-11T03:37:47.058Z,64.67
2019-05-11T03:40:17.123Z,74.80
2019-05-11T03:42:46.456Z,67.82
2019-05-11T03:45:14.587Z,71.60
2019-05-11T03:47:42.442Z,74.37
2019-05-11T03:50:10.491Z,65.12
2019-05-11T03:52:42.132Z,67.97
2019-05-11T03:55:12.490Z,73.50
2019-05-11T03:57:40.410Z,68.92
2019-05-11T04:00:08.603Z,75.45
2019-05-11T04:02:36.529Z,76.02
2019-05-11T04:05:04.837Z,77.05
2019-05-11T04:07:34.854Z,69.92
2019-05-11T04:10:03.725Z,74.10
2019-05-11T04:12:35.131Z,75.85
2019-05-11T04:15:02.393Z,69.90
2019-05-11T04:17:31.604Z,65.70
2019-05-11T04:19:59.524Z,69.05
2019-05-11T04:22:27.436Z,79.37
2019-05-11T04:24:55.311Z,71.10
2019-05-11T04:27:23.225Z,69.97
2019-05-11T04:29:51.068Z,69.35
2019-05-11T04:32:19.355Z,72.80
2019-05-11T04:34:55.095Z,66.85
2019-05-11T04:37:26.167Z,68.28
2019-05-11T04:39:54.115Z,68.60
2019-05-11T04:42:22.052Z,72.58
2019-05-11T04:44:52.421Z,80.55
2019-05-11T04:47:20.956Z,70.95
2019-05-11T04:49:48.932Z,66.70
2019-05-11T04:52:18.197Z,69.65
2019-05-11T04:54:46.055Z,68.55
2019-05-11T04:57:14.031Z,66.55
2019-05-11T04:59:47.748Z,67.82
2019-05-11T05:02:11.523Z,63.92
2019-05-11T05:04:39.450Z,61.25
2019-05-11T05:07:10.571Z,57.80
2019-05-11T05:09:42.414Z,53.23
2019-05-11T05:12:14.097Z,56.28
2019-05-11T05:14:40.022Z,53.75
2019-05-11T05:17:16.377Z,51.45
2019-05-11T05:19:44.764Z,57.00
2019-05-11T05:22:12.600Z,50.63
2019-05-11T05:24:40.532Z,45.88
2019-05-11T05:27:08.396Z,50.88
2019-05-11T05:29:36.301Z,50.80
2019-05-11T05:32:04.475Z,47.73
2019-05-11T05:34:32.417Z,47.43
2019-05-11T05:37:00.266Z,48.17
2019-05-11T05:39:28.432Z,43.17
2019-05-11T05:41:57.622Z,42.08
2019-05-11T05:44:28.020Z,42.05
2019-05-11T05:46:56.053Z,41.00
2019-05-11T05:49:24.135Z,41.80
2019-05-11T05:51:51.988Z,41.98
2019-05-11T05:54:19.857Z,39.75
2019-05-11T05:56:47.757Z,41.23
2019-05-11T05:59:15.633Z,41.68
2019-05-11T06:01:43.495Z,41.50
2019-05-11T06:04:11.342Z,42.10
2019-05-11T06:06:39.198Z,42.30
2019-05-11T06:09:07.478Z,39.13
2019-05-11T06:11:35.354Z,40.15
2019-05-11T06:14:03.210Z,38.73
2019-05-11T06:16:31.088Z,37.90
2019-05-11T06:18:58.906Z,40.38
2019-05-11T06:21:27.003Z,34.30
2019-05-11T06:23:54.814Z,39.58
2019-05-11T06:26:22.702Z,39.88
2019-05-11T06:28:50.539Z,42.10
2019-05-11T06:31:18.394Z,39.23
2019-05-11T06:33:46.223Z,41.30
2019-05-11T06:36:14.091Z,36.83
2019-05-11T06:38:41.899Z,37.48
2019-05-11T06:41:09.753Z,38.50
2019-05-11T06:43:37.726Z,37.15
2019-05-11T06:46:05.662Z,36.88
2019-05-11T06:48:33.498Z,44.73
2019-05-11T06:51:01.347Z,42.38
2019-05-11T06:53:29.531Z,48.55
2019-05-11T06:55:57.397Z,44.93
2019-05-11T06:58:25.254Z,38.45
2019-05-11T07:00:53.070Z,35.58
2019-05-11T07:03:20.962Z,36.15
2019-05-11T07:05:48.809Z,35.45
2019-05-11T07:08:16.683Z,36.55
2019-05-11T07:10:44.539Z,34.60
2019-05-11T07:13:12.442Z,35.00
2019-05-11T07:15:40.267Z,38.13
2019-05-11T07:18:08.130Z,40.88
2019-05-11T07:20:49.374Z,38.45
2019-05-11T07:23:05.567Z,37.40
2019-05-11T07:25:33.479Z,41.00
2019-05-11T07:28:01.330Z,36.98
2019-05-11T07:30:29.146Z,37.75
2019-05-11T07:32:58.110Z,38.58
2019-05-11T07:35:27.901Z,35.50
2019-05-11T07:37:57.959Z,34.58
2019-05-11T07:40:27.815Z,36.42
2019-05-11T07:42:55.066Z,37.23
2019-05-11T07:45:22.938Z,36.58
2019-05-11T07:47:50.826Z,33.75
2019-05-11T07:50:18.615Z,34.55
2019-05-11T07:52:48.338Z,35.70
2019-05-11T07:55:16.069Z,40.03
2019-05-11T07:57:43.918Z,40.08
2019-05-11T08:00:11.781Z,35.63
2019-05-11T08:02:39.623Z,35.33
2019-05-11T08:05:08.645Z,32.98
2019-05-11T08:07:37.850Z,33.58
2019-05-11T08:10:08.217Z,33.80
2019-05-11T08:12:38.291Z,32.28
2019-05-11T08:15:12.394Z,31.70
2019-05-11T08:17:37.945Z,33.78
2019-05-11T08:20:05.437Z,34.30
2019-05-11T08:22:33.282Z,31.07
2019-05-11T08:25:01.158Z,33.40
2019-05-11T08:27:29.032Z,36.85
2019-05-11T08:29:57.973Z,31.20
2019-05-11T08:32:28.454Z,33.70
2019-05-11T08:34:57.940Z,38.42
2019-05-11T08:37:25.165Z,35.85
2019-05-11T08:39:52.999Z,30.77
2019-05-11T08:42:20.869Z,32.40
2019-05-11T08:44:48.781Z,38.25
2019-05-11T08:47:17.916Z,40.12
2019-05-11T08:49:47.882Z,32.38
2019-05-11T08:52:15.434Z,36.23
2019-05-11T08:54:43.352Z,33.02
2019-05-11T08:57:11.238Z,30.45
2019-05-11T08:59:40.807Z,33.95
2019-05-11T09:02:09.018Z,32.83
2019-05-11T09:04:41.588Z,36.65
2019-05-11T09:07:07.895Z,30.80
2019-05-11T09:09:37.977Z,30.65
2019-05-11T09:12:08.009Z,31.23
2019-05-11T09:14:35.867Z,31.27
2019-05-11T09:17:03.743Z,27.02
2019-05-11T09:19:31.602Z,36.65
2019-05-11T09:22:02.904Z,29.37
2019-05-11T09:24:29.087Z,31.45
2019-05-11T09:26:58.557Z,27.85
2019-05-11T09:29:28.132Z,31.07
2019-05-11T09:31:58.300Z,29.37
2019-05-11T09:34:25.938Z,28.47
2019-05-11T09:36:53.874Z,26.15
2019-05-11T09:39:21.761Z,24.87
2019-05-11T09:41:49.715Z,24.92
2019-05-11T09:44:18.476Z,27.37
2019-05-11T09:46:47.787Z,27.52
2019-05-11T09:49:18.355Z,23.87
2019-05-11T09:51:48.429Z,29.48
2019-05-11T09:54:18.262Z,25.55
2019-05-11T09:56:48.451Z,29.40
2019-05-11T09:59:17.695Z,25.12
2019-05-11T10:01:45.280Z,27.70
2019-05-11T10:04:13.156Z,26.68
2019-05-11T10:06:41.035Z,27.80
2019-05-11T10:09:08.989Z,27.10
2019-05-11T10:11:36.897Z,30.15
2019-05-11T10:14:04.811Z,28.92
2019-05-11T10:16:32.742Z,25.17
2019-05-11T10:19:00.750Z,27.60
2019-05-11T10:21:28.609Z,28.83
2019-05-11T10:24:00.066Z,30.02
2019-05-11T10:26:29.198Z,30.05
2019-05-11T10:28:58.921Z,30.68
2019-05-11T10:31:28.563Z,30.97
2019-05-11T10:33:58.034Z,26.80
2019-05-11T10:36:28.003Z,28.47
2019-05-11T10:38:55.858Z,26.23
2019-05-11T10:41:23.742Z,26.35
2019-05-11T10:43:51.838Z,29.60
2019-05-11T10:46:23.524Z,28.80
2019-05-11T10:48:51.401Z,24.87
2019-05-11T10:51:20.201Z,27.73
2019-05-11T10:53:51.810Z,30.08
2019-05-11T10:56:19.354Z,29.75
2019-05-11T10:58:49.890Z,28.95
2019-05-11T11:01:19.448Z,26.25
2019-05-11T11:03:49.678Z,28.62
2019-05-11T11:06:18.820Z,29.92
2019-05-11T11:08:48.680Z,27.82
2019-05-11T11:11:18.578Z,26.12
2019-05-11T11:13:47.983Z,27.10
2019-05-11T11:16:30.812Z,21.48
2019-05-11T11:18:45.589Z,20.48
2019-05-11T11:21:13.479Z,21.02
2019-05-11T11:23:48.026Z,19.40
2019-05-11T11:26:18.243Z,19.30
2019-05-11T11:28:47.834Z,23.20
2019-05-11T11:31:15.573Z,18.87
2019-05-11T11:33:43.546Z,19.17
2019-05-11T11:36:11.963Z,18.62
2019-05-11T11:38:39.920Z,20.97
2019-05-11T11:41:07.832Z,18.10
2019-05-11T11:43:37.784Z,21.50
2019-05-11T11:46:05.405Z,19.60
2019-05-11T11:48:33.799Z,20.20
2019-05-11T11:51:01.671Z,20.05
2019-05-11T11:53:30.692Z,18.75
2019-05-11T11:56:00.058Z,18.90
2019-05-11T11:58:30.828Z,24.00
2019-05-11T12:00:58.818Z,20.75
2019-05-11T12:03:27.704Z,18.75
2019-05-11T12:05:58.021Z,21.10
2019-05-11T12:08:28.046Z,19.70
2019-05-11T12:10:55.895Z,19.10
2019-05-11T12:13:26.427Z,19.00
2019-05-11T12:15:53.544Z,22.22
2019-05-11T12:18:21.423Z,19.10
2019-05-11T12:20:49.266Z,19.00
2019-05-11T12:23:18.019Z,18.82
2019-05-11T12:25:48.573Z,20.30
2019-05-11T12:28:15.700Z,20.30
2019-05-11T12:30:43.548Z,21.45
2019-05-11T12:33:11.397Z,21.40
2019-05-11T12:35:39.228Z,19.48
2019-05-11T12:38:07.811Z,19.30
2019-05-11T12:40:35.899Z,21.02
2019-05-11T12:43:03.724Z,19.20
2019-05-11T12:45:31.551Z,18.70
2019-05-11T12:47:59.446Z,19.60
2019-05-11T12:50:28.629Z,20.05
2019-05-11T12:52:58.874Z,20.88
2019-05-11T12:55:28.424Z,20.50
2019-05-11T12:57:57.939Z,19.23
2019-05-11T13:00:30.457Z,20.20
2019-05-11T13:02:55.254Z,19.27
2019-05-11T13:05:23.391Z,23.02
2019-05-11T13:07:51.254Z,20.52
2019-05-11T13:10:19.139Z,20.70
2019-05-11T13:12:49.030Z,26.00
2019-05-11T13:15:17.537Z,22.62
2019-05-11T13:17:45.637Z,23.12
2019-05-11T13:20:13.587Z,18.52
2019-05-11T13:22:41.404Z,19.85
2019-05-11T13:25:09.358Z,18.90
2019-05-11T13:27:38.629Z,19.70
2019-05-11T13:30:07.960Z,19.27
2019-05-11T13:32:38.250Z,20.55
2019-05-11T13:35:05.525Z,20.27
2019-05-11T13:37:33.430Z,19.00
2019-05-11T13:40:01.748Z,18.95
2019-05-11T13:42:29.575Z,18.92
2019-05-11T13:44:58.430Z,19.23
2019-05-11T13:47:28.255Z,22.02
2019-05-11T13:49:58.272Z,20.75
2019-05-11T13:52:25.507Z,20.30
2019-05-11T13:54:53.402Z,19.42
2019-05-11T13:57:21.291Z,19.62
2019-05-11T13:59:49.129Z,18.87
2019-05-11T14:02:18.033Z,22.58
2019-05-11T14:04:48.087Z,21.33
2019-05-11T14:07:15.730Z,20.30
2019-05-11T14:09:43.604Z,21.40
2019-05-11T14:12:11.450Z,18.45
2019-05-11T14:14:39.263Z,19.87
2019-05-11T14:17:08.284Z,18.73
2019-05-11T14:19:38.445Z,19.90
2019-05-11T14:22:05.790Z,22.65
2019-05-11T14:24:33.631Z,23.12
2019-05-11T14:27:01.572Z,19.87
2019-05-11T14:29:29.470Z,19.35
2019-05-11T14:31:58.141Z,21.62
2019-05-11T14:34:28.329Z,19.00
2019-05-11T14:36:58.048Z,17.50
2019-05-11T14:39:27.807Z,20.65
2019-05-11T14:41:55.095Z,19.55
2019-05-11T14:44:22.962Z,19.90
2019-05-11T14:46:50.794Z,22.02
2019-05-11T14:49:18.833Z,23.25
2019-05-11T14:51:48.505Z,21.52
2019-05-11T14:54:18.556Z,21.97
2019-05-11T14:56:47.975Z,18.20
2019-05-11T14:59:18.169Z,20.68
2019-05-11T15:01:45.073Z,20.02
2019-05-11T15:04:12.939Z,18.90
2019-05-11T15:06:40.757Z,20.10
2019-05-11T15:09:09.363Z,21.02
2019-05-11T15:11:38.875Z,20.20
2019-05-11T15:14:08.158Z,20.75
2019-05-11T15:16:38.283Z,18.90
2019-05-11T15:19:07.868Z,19.23
2019-05-11T15:21:35.357Z,20.12
2019-05-11T15:24:03.241Z,20.12
2019-05-11T15:26:31.065Z,20.68
2019-05-11T15:28:58.951Z,19.57
2019-05-11T15:31:27.869Z,23.27
2019-05-11T15:33:57.726Z,21.65
2019-05-11T15:36:25.466Z,26.15
2019-05-11T15:38:53.299Z,19.98
2019-05-11T15:41:21.134Z,21.30
2019-05-11T15:43:48.962Z,21.27
2019-05-11T15:46:19.558Z,18.25
2019-05-11T15:48:56.628Z,22.02
2019-05-11T15:51:15.950Z,20.52
2019-05-11T15:53:43.789Z,23.27
2019-05-11T15:56:11.711Z,19.48
2019-05-11T15:58:39.561Z,18.27
2019-05-11T16:01:08.000Z,18.98
2019-05-11T16:03:35.917Z,17.57
2019-05-11T16:06:03.800Z,17.67
2019-05-11T16:08:31.600Z,19.57
2019-05-11T16:10:59.633Z,20.12
2019-05-11T16:13:28.452Z,20.62
2019-05-11T16:15:57.703Z,19.12
2019-05-11T16:18:25.763Z,16.20
2019-05-11T16:20:53.627Z,16.17
2019-05-11T16:23:21.478Z,17.77
2019-05-11T16:25:49.329Z,15.53
2019-05-11T16:28:19.355Z,15.72
2019-05-11T16:30:48.154Z,17.73
2019-05-11T16:33:17.952Z,18.25
2019-05-11T16:35:45.867Z,16.82
2019-05-11T16:38:14.045Z,19.37
2019-05-11T16:40:41.859Z,17.98
2019-05-11T16:43:09.739Z,16.23
2019-05-11T16:45:37.610Z,17.98
2019-05-11T16:48:07.784Z,16.90
2019-05-11T16:50:35.078Z,15.25
2019-05-11T16:53:02.953Z,16.05
2019-05-11T16:55:30.789Z,17.35
2019-05-11T16:57:58.926Z,16.85
2019-05-11T17:00:27.220Z,17.40
2019-05-11T17:02:55.083Z,16.05
2019-05-11T17:05:29.829Z,15.90
2019-05-11T17:07:52.526Z,17.02
2019-05-11T17:10:20.483Z,17.27
2019-05-11T17:12:48.937Z,21.05
2019-05-11T17:15:18.483Z,23.22
2019-05-11T17:17:48.596Z,36.30
2019-05-11T17:20:18.650Z,24.37
2019-05-11T17:22:47.938Z,72.15
2019-05-11T17:25:18.775Z,65.85
2019-05-11T17:27:48.264Z,178.78
2019-05-11T17:30:16.140Z,79.92
2019-05-11T17:32:44.005Z,126.12
2019-05-11T17:35:12.006Z,24.92
2019-05-11T17:37:39.857Z,22.10
2019-05-11T17:40:09.022Z,34.30
2019-05-11T17:42:37.838Z,20.97
2019-05-11T17:45:07.937Z,61.20
2019-05-11T17:47:35.852Z,36.38
2019-05-11T17:50:04.196Z,36.95
2019-05-11T17:52:32.094Z,18.45
2019-05-11T17:54:59.926Z,15.28
2019-05-11T17:57:27.878Z,17.17
2019-05-11T17:59:57.932Z,16.80
2019-05-11T18:02:25.322Z,15.38
2019-05-11T18:04:53.201Z,16.73
2019-05-11T18:07:27.049Z,15.70
2019-05-11T18:09:50.805Z,15.98
2019-05-11T18:12:18.688Z,14.85
2019-05-11T18:14:48.252Z,16.62
2019-05-11T18:17:17.898Z,15.43
2019-05-11T18:19:45.913Z,18.62
2019-05-11T18:22:13.880Z,14.95
2019-05-11T18:24:41.774Z,15.03
2019-05-11T18:27:09.600Z,17.42
2019-05-11T18:29:38.027Z,17.32
2019-05-11T18:32:06.013Z,15.98
2019-05-11T18:34:33.927Z,16.12
2019-05-11T18:37:01.822Z,15.63
2019-05-11T18:39:29.689Z,16.07
2019-05-11T18:41:58.692Z,18.52
2019-05-11T18:44:26.830Z,16.50
2019-05-11T18:46:54.690Z,15.08
2019-05-11T18:49:22.750Z,15.13
2019-05-11T18:51:50.738Z,14.35
2019-05-11T18:54:19.198Z,15.40
2019-05-11T18:56:48.807Z,15.90
2019-05-11T18:59:19.330Z,18.48
2019-05-11T19:01:48.486Z,17.20
2019-05-11T19:04:18.204Z,15.93
2019-05-11T19:06:45.732Z,15.35
2019-05-11T19:09:13.586Z,17.05
2019-05-11T19:11:42.824Z,19.17
2019-05-11T19:14:10.877Z,16.48
2019-05-11T19:16:39.073Z,15.05
2019-05-11T19:19:08.087Z,15.45
2019-05-11T19:21:36.253Z,16.62
2019-05-11T19:24:06.027Z,19.30
2019-05-11T19:26:33.677Z,18.30
2019-05-11T19:29:01.542Z,16.55
2019-05-11T19:31:29.373Z,18.82
2019-05-11T19:33:58.195Z,16.48
2019-05-11T19:36:27.717Z,17.32
2019-05-11T19:38:58.288Z,16.80
2019-05-11T19:41:27.326Z,15.88
2019-05-11T19:43:54.895Z,16.67
2019-05-11T19:46:22.737Z,17.98
2019-05-11T19:48:50.635Z,16.85
2019-05-11T19:51:18.750Z,15.32
2019-05-11T19:53:48.385Z,15.23
2019-05-11T19:56:18.256Z,16.05
2019-05-11T19:58:48.414Z,15.88
2019-05-11T20:01:15.691Z,18.25
2019-05-11T20:03:43.554Z,17.50
2019-05-11T20:06:11.423Z,14.78
2019-05-11T20:08:39.315Z,20.65
2019-05-11T20:11:08.235Z,17.60
2019-05-11T20:13:38.653Z,15.40
2019-05-11T20:16:08.119Z,17.15
2019-05-11T20:18:35.515Z,14.40
2019-05-11T20:21:15.480Z,15.13
2019-05-11T20:23:33.019Z,15.25
2019-05-11T20:26:00.873Z,17.45
2019-05-11T20:28:28.733Z,16.85
2019-05-11T20:30:58.758Z,18.35
2019-05-11T20:33:27.951Z,15.58
2019-05-11T20:35:57.938Z,17.07
2019-05-11T20:38:25.323Z,18.45
2019-05-11T20:40:53.197Z,16.12
2019-05-11T20:43:21.083Z,15.32
2019-05-11T20:45:48.966Z,19.77
2019-05-11T20:48:18.473Z,16.07
2019-05-11T20:50:48.322Z,16.70
2019-05-11T20:53:18.010Z,17.12
2019-05-11T20:55:47.884Z,17.23
2019-05-11T20:58:18.484Z,17.48
2019-05-11T21:00:45.929Z,17.45
2019-05-11T21:03:13.747Z,15.10
2019-05-11T21:05:41.650Z,15.43
2019-05-11T21:08:09.537Z,17.25
2019-05-11T21:10:38.599Z,14.35
2019-05-11T21:13:08.588Z,16.25
2019-05-11T21:15:38.453Z,16.93
2019-05-11T21:18:07.948Z,16.62
2019-05-11T21:20:38.027Z,16.37
2019-05-11T21:23:08.121Z,17.45
2019-05-11T21:25:37.673Z,17.50
2019-05-11T21:28:05.406Z,20.30
2019-05-11T21:30:33.256Z,15.75
2019-05-11T21:33:01.115Z,16.50
2019-05-11T21:35:28.970Z,18.30
2019-05-11T21:37:58.010Z,17.85
2019-05-11T21:40:26.151Z,18.17
2019-05-11T21:42:54.043Z,16.50
2019-05-11T21:45:22.177Z,17.25
2019-05-11T21:47:50.091Z,20.68
2019-05-11T21:50:19.080Z,18.35
2019-05-11T21:52:48.460Z,19.10
2019-05-11T21:55:16.464Z,15.90
2019-05-11T21:57:44.319Z,17.95
2019-05-11T22:00:12.442Z,19.10
2019-05-11T22:02:40.399Z,16.65
2019-05-11T22:05:08.729Z,19.17
2019-05-11T22:07:41.374Z,17.25
2019-05-11T22:10:08.891Z,16.35
2019-05-11T22:12:38.869Z,21.60
2019-05-11T22:15:08.796Z,18.30
2019-05-11T22:17:35.750Z,20.88
2019-05-11T22:20:03.613Z,16.20
2019-05-11T22:22:31.507Z,16.57
2019-05-11T22:24:59.419Z,15.90
2019-05-11T22:27:27.796Z,19.42
2019-05-11T22:29:56.139Z,18.65
2019-05-11T22:32:23.974Z,18.75
2019-05-11T22:34:51.838Z,15.78
2019-05-11T22:37:19.666Z,18.23
2019-05-11T22:39:49.446Z,16.30
2019-05-11T22:42:18.449Z,17.00
2019-05-11T22:44:48.352Z,19.12
2019-05-11T22:47:17.876Z,19.40
2019-05-11T22:49:49.630Z,16.87
2019-05-11T22:52:17.771Z,18.17
2019-05-11T22:54:44.766Z,16.42
2019-05-11T22:57:12.651Z,20.32
2019-05-11T22:59:40.574Z,20.12
2019-05-11T23:02:10.852Z,17.45
2019-05-11T23:04:38.199Z,19.30
2019-05-11T23:07:07.933Z,19.82
2019-05-11T23:09:38.006Z,18.85
2019-05-11T23:12:05.292Z,17.45
2019-05-11T23:14:33.167Z,15.90
2019-05-11T23:17:01.026Z,16.52
2019-05-11T23:19:28.911Z,16.20
2019-05-11T23:21:58.684Z,18.60
2019-05-11T23:24:28.588Z,15.60
2019-05-11T23:26:55.906Z,17.32
2019-05-11T23:29:23.782Z,17.35
2019-05-11T23:31:52.526Z,16.02
2019-05-11T23:34:20.355Z,15.85
2019-05-11T23:36:48.750Z,18.80
2019-05-11T23:39:17.835Z,16.67
2019-05-11T23:41:48.129Z,15.83
2019-05-11T23:44:17.811Z,16.80
2019-05-11T23:46:47.731Z,17.37
2019-05-11T23:49:15.107Z,16.67
2019-05-11T23:51:42.938Z,16.62
2019-05-11T23:54:10.778Z,15.80
2019-05-11T23:56:38.821Z,14.70
2019-05-11T23:59:08.245Z,14.73
